Time;durP1;ratioP1;P1;durP2;ratioP2;P2;SDS_P1;SDS_P2;PMS_P1;PMS_P2;Temp;Humidity;BMP_temperature;BMP_pressure;BME280_temperature;BME280_humidity;BME280_pressure;Samples;Min_cycle;Max_cycle;Signal;HPM_P1;HPM_P2
2022/01/03 00:00:39;;;;;;;5.70;5.10;;;;;;;4.60;100.00;62474.91;5105856;28;20200;-78
2022/01/03 00:03:09;;;;;;;6.40;5.65;;;;;;;4.54;100.00;62468.19;5105902;28;20241;-76
2022/01/03 00:05:39;;;;;;;7.32;6.53;;;;;;;4.54;100.00;62468.72;5105487;28;20196;-78
2022/01/03 00:08:06;;;;;;;9.05;7.30;;;;;;;4.55;100.00;62469.25;5105975;28;20241;-78
2022/01/03 00:10:34;;;;;;;8.45;6.53;;;;;;;4.53;100.00;62467.69;5102647;28;20229;-78
2022/01/03 00:13:02;;;;;;;10.35;6.68;;;;;;;4.55;100.00;62464.19;5105849;28;20204;-77
2022/01/03 00:15:31;;;;;;;9.10;7.32;;;;;;;4.54;100.00;62468.72;5126148;28;20499;-78
2022/01/03 00:17:58;;;;;;;10.93;7.63;;;;;;;4.55;100.00;62466.72;5126246;28;20203;-78
2022/01/03 00:20:27;;;;;;;11.50;8.45;;;;;;;4.56;100.00;62467.75;5101833;28;20196;-77
2022/01/03 00:22:57;;;;;;;8.93;7.70;;;;;;;4.53;100.00;62467.19;5116262;28;20241;-78
2022/01/03 00:25:26;;;;;;;12.77;8.25;;;;;;;4.52;100.00;62461.13;5106644;28;20204;-78
2022/01/03 00:28:01;;;;;;;12.32;8.93;;;;;;;4.46;100.00;62457.97;5102143;28;20432;-78
2022/01/03 00:30:27;;;;;;;11.30;6.97;;;;;;;4.56;100.00;62470.78;5105123;28;20447;-76
2022/01/03 00:32:58;;;;;;;9.25;6.88;;;;;;;4.53;100.00;62467.19;5105163;28;20202;-77
2022/01/03 00:35:25;;;;;;;13.73;9.27;;;;;;;4.58;100.00;62475.38;5100995;28;20207;-78
2022/01/03 00:37:52;;;;;;;13.80;9.07;;;;;;;4.58;100.00;62472.31;5105855;28;20196;-78
2022/01/03 00:40:21;;;;;;;12.43;9.00;;;;;;;4.54;100.00;62466.19;5106927;28;20212;-76
2022/01/03 00:42:49;;;;;;;16.73;10.07;;;;;;;4.53;100.00;62465.19;5103077;28;20230;-77
2022/01/03 00:45:17;;;;;;;21.30;10.30;;;;;;;4.58;100.00;62469.81;5103563;28;20220;-77
2022/01/03 00:47:44;;;;;;;14.38;9.40;;;;;;;4.59;100.00;62468.81;5104661;28;20306;-77
2022/01/03 00:50:16;;;;;;;22.25;11.98;;;;;;;4.56;100.00;62468.25;5105168;28;20219;-76
2022/01/03 00:52:43;;;;;;;22.65;11.30;;;;;;;4.57;100.00;62466.75;5102133;28;20207;-77
2022/01/03 00:55:11;;;;;;;21.67;10.88;;;;;;;4.52;100.00;62461.13;5104258;28;20219;-77
2022/01/03 00:57:52;;;;;;;18.77;10.82;;;;;;;4.51;100.00;62465.13;5105216;28;20406;-77
2022/01/03 01:00:19;;;;;;;17.25;11.35;;;;;;;4.52;100.00;62456.56;5104949;28;20219;-77
2022/01/03 01:02:51;;;;;;;15.35;10.65;;;;;;;4.50;100.00;62462.06;5102188;28;20204;-77
2022/01/03 01:05:21;;;;;;;11.13;7.45;;;;;;;4.44;100.00;62457.91;5104496;28;20232;-78
2022/01/03 01:07:49;;;;;;;12.13;7.50;;;;;;;4.43;100.00;62459.94;5105115;28;20496;-77
2022/01/03 01:10:16;;;;;;;10.43;7.28;;;;;;;4.43;100.00;62454.88;5102944;28;20231;-78
2022/01/03 01:12:46;;;;;;;9.88;7.38;;;;;;;4.43;100.00;62451.84;5119831;28;20256;-77
2022/01/03 01:15:15;;;;;;;11.98;7.75;;;;;;;4.47;100.00;62461.00;5108442;28;20452;-77
2022/01/03 01:17:42;;;;;;;10.48;7.80;;;;;;;4.37;100.00;62443.16;5106335;28;20246;-77
2022/01/03 01:20:12;;;;;;;11.18;8.57;;;;;;;4.39;100.00;62452.75;5101658;28;20265;-77
2022/01/03 01:22:41;;;;;;;12.77;9.52;;;;;;;4.43;100.00;62454.88;5104482;28;20247;-77
2022/01/03 01:25:26;;;;;;;9.75;6.95;;;;;;;4.39;100.00;62450.75;5104471;28;20241;-77
2022/01/03 01:27:56;;;;;;;14.05;9.15;;;;;;;4.39;100.00;62453.28;5105774;28;20196;-78
2022/01/03 01:30:25;;;;;;;14.27;8.45;;;;;;;4.34;100.00;62450.16;5101840;28;20261;-77
2022/01/03 01:33:01;;;;;;;14.35;9.23;;;;;;;4.31;100.00;62439.50;5105113;28;20195;-78
2022/01/03 01:35:31;;;;;;;15.48;9.63;;;;;;;4.31;100.00;62445.06;5107434;28;20234;-77
2022/01/03 01:38:02;;;;;;;11.38;8.38;;;;;;;4.32;100.00;62443.56;5110551;28;20222;-78
2022/01/03 01:40:30;;;;;;;17.75;10.13;;;;;;;4.30;100.00;62440.97;5134836;28;20187;-78
2022/01/03 01:42:59;;;;;;;17.10;11.85;;;;;;;4.27;100.00;62438.41;5134434;28;20199;-78
2022/01/03 01:45:28;;;;;;;18.42;11.75;;;;;;;4.27;100.00;62435.91;5117785;28;20436;-77
2022/01/03 01:47:59;;;;;;;20.42;11.70;;;;;;;4.28;100.00;62438.94;5097171;28;20204;-77
2022/01/03 01:50:28;;;;;;;18.17;11.93;;;;;;;4.24;100.00;62437.84;5100969;28;20395;-77
2022/01/03 01:52:56;;;;;;;10.45;8.40;;;;;;;4.25;100.00;62435.84;5104643;28;20200;-78
2022/01/03 01:55:25;;;;;;;14.10;9.02;;;;;;;4.29;100.00;62439.97;5103457;28;20210;-77
2022/01/03 01:58:04;;;;;;;11.50;8.95;;;;;;;4.34;100.00;62442.59;5100283;28;20207;-77
2022/01/03 02:00:33;;;;;;;15.00;9.90;;;;;;;4.26;100.00;62441.91;5103920;28;20265;-77
2022/01/03 02:03:07;;;;;;;14.10;9.05;;;;;;;4.16;100.00;62421.56;5103963;28;20208;-78
2022/01/03 02:05:38;;;;;;;14.60;9.43;;;;;;;4.16;100.00;62429.59;5101124;28;20228;-77
2022/01/03 02:08:13;;;;;;;12.25;9.38;;;;;;;4.19;100.00;62430.19;5103581;28;20227;-78
2022/01/03 02:10:44;;;;;;;13.18;8.63;;;;;;;4.15;100.00;62423.03;5104103;28;20183;-77
2022/01/03 02:13:16;;;;;;;16.33;9.18;;;;;;;4.22;100.00;62430.22;5104241;28;20204;-77
2022/01/03 02:15:46;;;;;;;15.13;9.75;;;;;;;4.26;100.00;62437.38;5101370;28;20207;-78
2022/01/03 02:18:13;;;;;;;13.00;9.20;;;;;;;4.18;100.00;62428.63;5101522;28;20200;-77
2022/01/03 02:20:41;;;;;;;12.48;8.85;;;;;;;3.96;100.00;62411.56;5101993;28;20196;-77
2022/01/03 02:23:09;;;;;;;12.25;8.43;;;;;;;3.79;100.00;62389.03;5100642;28;20208;-75
2022/01/03 02:25:35;;;;;;;13.90;8.40;;;;;;;3.66;100.00;62377.69;5102456;28;20196;-77
2022/01/03 02:28:03;;;;;;;13.38;8.38;;;;;;;3.71;100.00;62385.84;5103732;28;20222;-78
2022/01/03 02:30:32;;;;;;;10.88;8.00;;;;;;;3.48;100.00;62355.16;5103783;28;20238;-77
2022/01/03 02:32:59;;;;;;;16.05;10.32;;;;;;;3.47;100.00;62356.63;5104146;28;20231;-78
2022/01/03 02:35:26;;;;;;;16.45;10.20;;;;;;;3.49;100.00;62355.66;5104002;28;20214;-78
2022/01/03 02:37:55;;;;;;;15.23;10.52;;;;;;;3.49;100.00;62358.69;5103110;28;20214;-78
2022/01/03 02:40:22;;;;;;;17.83;11.50;;;;;;;3.48;100.00;62355.16;5104223;28;20238;-77
2022/01/03 02:42:50;;;;;;;18.33;11.95;;;;;;;3.69;100.00;62375.72;5099818;28;20211;-78
2022/01/03 02:45:18;;;;;;;24.00;13.82;;;;;;;3.85;100.00;62394.69;5103486;28;20532;-78
2022/01/03 02:47:47;;;;;;;18.88;11.48;;;;;;;3.88;100.00;62395.78;5114766;28;20264;-78
2022/01/03 02:50:16;;;;;;;18.67;11.82;;;;;;;4.02;100.00;62414.69;5122192;28;20274;-78
2022/01/03 02:52:43;;;;;;;21.05;12.95;;;;;;;4.07;100.00;62417.31;5106239;28;20238;-77
2022/01/03 02:55:13;;;;;;;20.23;13.07;;;;;;;4.16;100.00;62424.06;5106795;28;20403;-78
2022/01/03 02:57:42;;;;;;;22.45;13.25;;;;;;;4.19;100.00;62432.19;5106433;28;20200;-78
2022/01/03 03:00:12;;;;;;;23.38;13.55;;;;;;;4.26;100.00;62434.34;5104049;28;20417;-77
2022/01/03 03:02:39;;;;;;;21.65;13.35;;;;;;;4.31;100.00;62442.03;5106115;28;20200;-77
2022/01/03 03:05:08;;;;;;;22.08;14.70;;;;;;;4.38;100.00;62452.25;5107003;28;20220;-78
2022/01/03 03:07:36;;;;;;;19.88;12.70;;;;;;;4.39;100.00;62452.75;5107158;28;20263;-77
2022/01/03 03:10:06;;;;;;;17.08;11.75;;;;;;;4.44;100.00;62457.91;5103622;28;20216;-78
2022/01/03 03:12:34;;;;;;;17.17;11.35;;;;;;;4.32;100.00;62443.56;5106171;28;20273;-77
2022/01/03 03:15:01;;;;;;;16.63;11.68;;;;;;;4.30;100.00;62444.03;5106267;28;20325;-78
2022/01/03 03:17:28;;;;;;;16.65;10.65;;;;;;;4.43;100.00;62456.88;5113592;28;20215;-78
2022/01/03 03:19:57;;;;;;;13.75;8.63;;;;;;;4.49;100.00;62461.06;5108551;28;20220;-77
2022/01/03 03:22:25;;;;;;;15.40;9.50;;;;;;;4.51;100.00;62467.63;5086455;28;20205;-77
2022/01/03 03:24:59;;;;;;;11.57;8.07;;;;;;;4.47;100.00;62456.47;5086875;28;20217;-78
2022/01/03 03:27:26;;;;;;;10.25;8.20;;;;;;;4.47;100.00;62455.94;5104631;28;20251;-78
2022/01/03 03:29:54;;;;;;;8.02;6.80;;;;;;;4.39;100.00;62448.25;5105707;28;20269;-77
2022/01/03 03:32:21;;;;;;;9.95;8.00;;;;;;;4.44;100.00;62452.88;5106685;28;20439;-78
2022/01/03 03:34:49;;;;;;;12.00;8.30;;;;;;;4.42;100.00;62456.38;5106577;28;20257;-78
2022/01/03 03:37:17;;;;;;;10.45;7.07;;;;;;;4.36;100.00;62447.69;5104184;28;20219;-78
2022/01/03 03:39:44;;;;;;;10.00;7.03;;;;;;;4.34;100.00;62445.09;5105385;28;20257;-78
2022/01/03 03:42:12;;;;;;;11.93;7.68;;;;;;;4.41;100.00;62452.31;5126621;28;20195;-78
2022/01/03 03:44:39;;;;;;;9.07;6.15;;;;;;;4.40;100.00;62448.75;5123367;28;20225;-78
2022/01/03 03:47:09;;;;;;;10.90;6.63;;;;;;;4.38;100.00;62452.25;5104105;28;20216;-78
2022/01/03 03:49:36;;;;;;;6.18;5.35;;;;;;;4.09;100.00;62424.44;5106152;28;20222;-76
2022/01/03 03:52:03;;;;;;;8.43;6.47;;;;;;;4.10;100.00;62425.44;5105359;28;20556;-78
2022/01/03 03:54:31;;;;;;;7.10;6.43;;;;;;;4.11;100.00;62421.94;5102658;28;20224;-77
2022/01/03 03:56:58;;;;;;;7.85;6.40;;;;;;;4.22;100.00;62432.75;5106522;28;20203;-77
2022/01/03 03:59:26;;;;;;;12.40;6.97;;;;;;;4.09;100.00;62419.38;5115371;28;20416;-77
2022/01/03 04:01:53;;;;;;;12.02;8.18;;;;;;;4.22;100.00;62435.78;5114155;28;20216;-77
2022/01/03 04:04:22;;;;;;;8.93;7.03;;;;;;;4.18;100.00;62426.63;5102339;28;20536;-76
2022/01/03 04:06:49;;;;;;;13.63;6.25;;;;;;;4.21;100.00;62431.72;5106095;28;20221;-78
2022/01/03 04:09:16;;;;;;;10.13;7.18;;;;;;;4.15;100.00;62423.56;5106968;28;20214;-77
2022/01/03 04:11:43;;;;;;;9.45;6.10;;;;;;;4.10;100.00;62420.41;5105901;28;20249;-77
2022/01/03 04:14:10;;;;;;;12.05;8.65;;;;;;;4.12;100.00;62419.94;5104240;28;20283;-78
2022/01/03 04:16:39;;;;;;;11.85;7.50;;;;;;;4.13;100.00;62420.97;5126681;28;20213;-77
2022/01/03 04:19:06;;;;;;;13.48;7.45;;;;;;;4.18;100.00;62431.16;5111442;28;20219;-78
2022/01/03 04:21:37;;;;;;;12.45;7.60;;;;;;;4.17;100.00;62427.63;5110891;28;20207;-77
2022/01/03 04:24:04;;;;;;;8.70;7.07;;;;;;;4.20;100.00;62431.22;5093349;28;20235;-78
2022/01/03 04:26:31;;;;;;;12.07;7.63;;;;;;;4.18;100.00;62433.66;5085675;28;20250;-77
2022/01/03 04:28:58;;;;;;;12.82;7.10;;;;;;;4.21;100.00;62432.22;5121266;28;20215;-77
2022/01/03 04:31:25;;;;;;;7.80;5.60;;;;;;;4.19;100.00;62430.19;5109823;28;20200;-77
2022/01/03 04:33:52;;;;;;;4.63;3.65;;;;;;;4.24;100.00;62440.38;5110756;28;20220;-77
2022/01/03 04:36:18;;;;;;;5.00;4.60;;;;;;;4.24;100.00;62434.81;5115014;28;20230;-77
2022/01/03 04:38:47;;;;;;;4.85;4.03;;;;;;;4.12;100.00;62428.03;5127234;28;20215;-77
2022/01/03 04:41:13;;;;;;;5.07;4.38;;;;;;;4.11;100.00;62421.94;5107372;28;20206;-77
2022/01/03 04:43:41;;;;;;;5.07;4.57;;;;;;;4.13;100.00;62424.00;5104614;28;20223;-78
2022/01/03 04:46:08;;;;;;;6.00;5.22;;;;;;;4.12;100.00;62425.00;5105315;28;20223;-78
2022/01/03 04:48:36;;;;;;;5.22;4.65;;;;;;;4.10;100.00;62420.94;5103858;28;20215;-78
2022/01/03 04:51:03;;;;;;;5.70;4.88;;;;;;;4.11;100.00;62419.44;5104417;28;20507;-78
2022/01/03 04:53:30;;;;;;;6.05;5.40;;;;;;;4.13;100.00;62428.53;5104165;28;20243;-78
2022/01/03 04:55:58;;;;;;;10.07;6.32;;;;;;;4.07;100.00;62427.41;5105474;28;20210;-77
2022/01/03 04:58:25;;;;;;;7.60;5.75;;;;;;;4.12;100.00;62419.94;5101929;28;20220;-78
2022/01/03 05:00:52;;;;;;;8.30;6.38;;;;;;;3.98;100.00;62406.06;5104513;28;20196;-77
2022/01/03 05:03:19;;;;;;;7.03;5.95;;;;;;;3.94;100.00;62406.97;5104287;28;20228;-78
2022/01/03 05:05:46;;;;;;;14.65;7.82;;;;;;;3.98;100.00;62411.09;5108182;28;20216;-77
2022/01/03 05:08:13;;;;;;;7.22;5.80;;;;;;;3.97;100.00;62404.53;5101732;28;20200;-77
2022/01/03 05:10:39;;;;;;;7.63;6.30;;;;;;;3.94;100.00;62406.47;5104182;28;20208;-78
2022/01/03 05:13:08;;;;;;;7.70;6.68;;;;;;;3.94;100.00;62401.41;5104566;28;20264;-77
2022/01/03 05:15:34;;;;;;;5.90;5.35;;;;;;;3.90;100.00;62397.81;5107537;28;20196;-77
2022/01/03 05:18:01;;;;;;;7.43;4.80;;;;;;;3.88;100.00;62400.28;5104729;28;20195;-78
2022/01/03 05:20:28;;;;;;;4.25;3.85;;;;;;;3.90;100.00;62400.34;5123837;28;20191;-78
2022/01/03 05:22:55;;;;;;;4.85;4.35;;;;;;;3.89;100.00;62401.84;5124921;28;20203;-78
2022/01/03 05:25:22;;;;;;;7.28;3.63;;;;;;;3.92;100.00;62399.38;5105829;28;20207;-77
2022/01/03 05:27:49;;;;;;;4.45;3.80;;;;;;;3.84;100.00;62393.66;5105759;28;20256;-77
2022/01/03 05:30:17;;;;;;;4.63;3.92;;;;;;;3.83;100.00;62393.13;5104809;28;20250;-78
2022/01/03 05:32:44;;;;;;;5.10;4.57;;;;;;;3.71;100.00;62383.31;5104919;28;20231;-77
2022/01/03 05:35:10;;;;;;;7.68;5.97;;;;;;;3.72;100.00;62388.88;5101857;28;20237;-78
2022/01/03 05:37:37;;;;;;;8.20;6.88;;;;;;;3.71;100.00;62380.81;5107242;28;20221;-78
2022/01/03 05:40:05;;;;;;;8.55;7.65;;;;;;;3.69;100.00;62381.28;5108630;28;20231;-78
2022/01/03 05:42:32;;;;;;;10.85;7.75;;;;;;;3.69;100.00;62376.25;5095281;28;20199;-78
2022/01/03 05:44:59;;;;;;;11.05;8.10;;;;;;;3.71;100.00;62377.78;5100607;28;20242;-78
2022/01/03 05:47:28;;;;;;;10.13;8.38;;;;;;;3.71;100.00;62380.31;5104119;28;20188;-78
2022/01/03 05:49:55;;;;;;;15.30;8.98;;;;;;;3.78;100.00;62385.47;5105076;28;20227;-78
2022/01/03 05:52:22;;;;;;;13.02;9.18;;;;;;;3.80;100.00;62392.06;5102436;28;20240;-77
2022/01/03 05:54:49;;;;;;;15.38;9.55;;;;;;;3.85;100.00;62395.19;5102045;28;20215;-77
2022/01/03 05:57:15;;;;;;;12.23;8.15;;;;;;;3.90;100.00;62397.81;5104352;28;20409;-77
2022/01/03 05:59:42;;;;;;;14.10;8.38;;;;;;;3.85;100.00;62392.69;5104292;28;20220;-77
2022/01/03 06:02:09;;;;;;;10.90;8.15;;;;;;;3.89;100.00;62399.31;5103879;28;20214;-78
2022/01/03 06:04:52;;;;;;;8.93;5.72;;;;;;;3.91;100.00;62400.88;5103988;28;20293;-78
2022/01/03 06:07:19;;;;;;;9.48;5.85;;;;;;;3.91;100.00;62401.38;5100652;28;20237;-77
2022/01/03 06:09:48;;;;;;;8.15;6.40;;;;;;;3.93;100.00;62405.44;5105854;28;20547;-78
2022/01/03 06:12:16;;;;;;;9.23;7.18;;;;;;;3.92;100.00;62402.41;5101969;28;20231;-78
2022/01/03 06:14:44;;;;;;;16.50;9.45;;;;;;;4.04;100.00;62411.72;5104962;28;20216;-77
2022/01/03 06:17:11;;;;;;;19.95;9.50;;;;;;;4.07;100.00;62417.81;5104240;28;20340;-77
2022/01/03 06:19:41;;;;;;;15.82;9.02;;;;;;;4.16;100.00;62424.56;5103064;28;20576;-78
2022/01/03 06:22:09;;;;;;;12.90;9.05;;;;;;;4.20;100.00;62431.22;5109214;28;20211;-77
2022/01/03 06:24:36;;;;;;;14.65;9.20;;;;;;;3.93;100.00;62397.88;5110478;28;20224;-78
2022/01/03 06:27:03;;;;;;;15.80;9.55;;;;;;;3.95;100.00;62402.97;5111460;28;20261;-78
2022/01/03 06:29:30;;;;;;;13.00;9.15;;;;;;;3.98;100.00;62406.06;5115307;28;20215;-78
2022/01/03 06:31:57;;;;;;;15.48;9.82;;;;;;;4.01;100.00;62411.66;5107287;28;20222;-77
2022/01/03 06:34:24;;;;;;;13.95;10.68;;;;;;;4.04;100.00;62416.75;5107600;28;20250;-77
2022/01/03 06:36:52;;;;;;;13.23;9.57;;;;;;;4.08;100.00;62415.81;5105921;28;20196;-78
2022/01/03 06:39:20;;;;;;;15.98;10.25;;;;;;;4.08;100.00;62421.38;5106664;28;20224;-78
2022/01/03 06:41:46;;;;;;;10.68;8.00;;;;;;;4.15;100.00;62426.06;5107648;28;20200;-77
2022/01/03 06:44:13;;;;;;;11.38;7.07;;;;;;;4.18;100.00;62426.13;5107998;28;20322;-78
2022/01/03 06:46:40;;;;;;;7.95;5.47;;;;;;;4.20;100.00;62435.72;5104893;28;20204;-77
2022/01/03 06:49:07;;;;;;;8.63;6.10;;;;;;;4.14;100.00;62422.50;5108743;28;20208;-77
2022/01/03 06:51:35;;;;;;;6.45;4.95;;;;;;;4.14;100.00;62422.50;5100410;28;20426;-77
2022/01/03 06:54:04;;;;;;;7.20;6.07;;;;;;;4.16;100.00;62429.09;5109667;28;20279;-77
2022/01/03 06:56:31;;;;;;;12.98;7.20;;;;;;;4.17;100.00;62427.63;5117021;28;20222;-77
2022/01/03 06:58:58;;;;;;;13.90;8.30;;;;;;;4.21;100.00;62436.78;5115777;28;20546;-77
2022/01/03 07:01:25;;;;;;;11.50;8.25;;;;;;;4.23;100.00;62431.78;5115069;28;20263;-78
2022/01/03 07:03:52;;;;;;;12.48;9.02;;;;;;;4.32;100.00;62445.56;5108163;28;20216;-79
2022/01/03 07:06:19;;;;;;;11.68;8.80;;;;;;;4.21;100.00;62429.72;5108488;28;20238;-78
2022/01/03 07:08:46;;;;;;;14.73;8.90;;;;;;;4.25;100.00;62433.31;5104140;28;20220;-79
2022/01/03 07:11:14;;;;;;;15.65;8.73;;;;;;;4.30;100.00;62444.03;5095511;28;20212;-79
2022/01/03 07:13:47;;;;;;;15.13;11.85;;;;;;;4.43;100.00;62454.38;5116669;28;20227;-80
2022/01/03 07:19:00;;;;;;;16.77;10.73;;;;;;;4.85;100.00;62497.09;5104355;28;20528;-79
2022/01/03 07:21:28;;;;;;;14.63;10.15;;;;;;;5.05;100.00;62515.69;5101443;28;20536;-78
2022/01/03 07:23:55;;;;;;;14.23;10.57;;;;;;;5.22;100.00;62533.19;5106307;28;20222;-78
2022/01/03 07:26:23;;;;;;;15.18;10.10;;;;;;;5.48;100.00;62565.00;5091318;28;20497;-80
2022/01/03 07:28:50;;;;;;;17.00;9.60;;;;;;;5.72;100.00;62589.75;5091193;28;20261;-80
2022/01/03 07:31:20;;;;;;;16.55;10.15;;;;;;;5.95;100.00;62609.91;5108290;28;20192;-78
2022/01/03 07:33:47;;;;;;;12.80;9.13;;;;;;;5.87;100.00;62604.69;5103918;28;20547;-77
2022/01/03 07:36:15;;;;;;;12.85;10.15;;;;;;;5.96;100.00;62613.97;5103647;28;20207;-77
2022/01/03 07:38:46;;;;;;;14.25;10.93;;;;;;;6.07;100.00;62622.78;5105543;28;20227;-78
2022/01/03 07:41:14;;;;;;;15.27;9.82;;;;;;;6.13;100.00;62634.03;5104656;28;20212;-77
2022/01/03 07:43:43;;;;;;;14.05;9.27;;;;;;;6.06;100.00;62621.25;5105777;28;20219;-79
2022/01/03 07:46:09;;;;;;;15.90;10.38;;;;;;;6.09;100.00;62629.38;5105207;28;20208;-78
2022/01/03 07:48:36;;;;;;;13.98;9.02;;;;;;;6.26;100.00;62646.91;5103373;28;20234;-79
2022/01/03 07:51:04;;;;;;;12.70;8.80;;;;;;;6.25;100.00;62641.34;5106035;28;20238;-78
2022/01/03 07:53:31;;;;;;;14.02;8.63;;;;;;;6.30;100.00;62643.97;5104597;28;20235;-78
2022/01/03 07:55:58;;;;;;;10.32;8.90;;;;;;;6.09;100.00;62622.31;5105119;28;20279;-79
2022/01/03 07:58:25;;;;;;;11.82;8.60;;;;;;;6.15;100.00;62630.50;5106313;28;20212;-78
2022/01/03 08:00:54;;;;;;;14.32;9.32;;;;;;;6.36;100.00;62652.16;5105989;28;20196;-78
2022/01/03 08:03:22;;;;;;;12.35;9.23;;;;;;;6.44;100.00;62660.41;5101149;28;20227;-77
2022/01/03 08:05:48;;;;;;;11.65;8.30;;;;;;;6.55;100.00;62671.75;5104768;28;20197;-78
2022/01/03 08:08:15;;;;;;;11.25;8.75;;;;;;;6.56;100.00;62673.28;5105786;28;20277;-79
2022/01/03 08:10:42;;;;;;;11.05;8.07;;;;;;;6.51;100.00;62668.13;5105905;28;20557;-78
2022/01/03 08:13:09;;;;;;;13.00;8.95;;;;;;;6.61;100.00;62673.38;5104200;28;20227;-78
2022/01/03 08:15:38;;;;;;;12.38;9.52;;;;;;;6.78;100.00;62700.53;5103570;28;20204;-77
2022/01/03 08:18:06;;;;;;;12.27;8.98;;;;;;;6.84;100.00;62699.13;5106806;28;20196;-78
2022/01/03 08:20:33;;;;;;;14.20;9.13;;;;;;;6.75;100.00;62692.88;5104225;28;20268;-79
2022/01/03 08:23:00;;;;;;;11.98;8.50;;;;;;;6.86;100.00;62704.25;5105486;28;20241;-79
2022/01/03 08:25:27;;;;;;;14.80;9.63;;;;;;;7.05;100.00;62723.31;5107750;28;20199;-79
2022/01/03 08:27:57;;;;;;;16.92;7.80;;;;;;;7.23;100.00;62741.88;5110099;28;20196;-78
2022/01/03 08:30:24;;;;;;;16.52;9.65;;;;;;;7.38;100.00;62759.91;5106325;28;20208;-78
2022/01/03 08:32:50;;;;;;;19.88;12.27;;;;;;;7.51;100.00;62773.31;5105075;28;20249;-78
2022/01/03 08:35:19;;;;;;;9.63;7.95;;;;;;;7.53;100.00;62772.84;5104759;28;20520;-77
2022/01/03 08:37:45;;;;;;;12.48;7.80;;;;;;;7.61;100.00;62781.09;5105315;28;20198;-76
2022/01/03 08:40:12;;;;;;;17.27;7.63;;;;;;;7.74;100.00;62789.47;5104286;28;20236;-79
2022/01/03 08:42:39;;;;;;;11.82;8.50;;;;;;;7.92;100.00;62815.66;5106866;28;20206;-78
2022/01/03 08:45:07;;;;;;;12.45;8.85;;;;;;;8.18;100.00;62839.97;5102737;28;20281;-77
2022/01/03 08:47:34;;;;;;;14.77;8.43;;;;;;;8.30;100.00;62856.94;5102680;28;20406;-77
2022/01/03 08:50:00;;;;;;;17.17;8.82;;;;;;;8.30;100.00;62848.81;5104894;28;20302;-77
2022/01/03 08:52:29;;;;;;;11.43;9.23;;;;;;;8.38;100.00;62862.66;5102935;28;20422;-77
2022/01/03 08:54:56;;;;;;;12.88;8.57;;;;;;;8.38;100.00;62862.66;5104537;28;20246;-78
2022/01/03 08:57:22;;;;;;;12.55;9.05;;;;;;;8.44;100.00;62865.81;5108839;28;20256;-78
2022/01/03 08:59:50;;;;;;;11.73;9.45;;;;;;;8.67;100.00;62890.09;5104097;28;20230;-78
2022/01/03 09:02:17;;;;;;;17.27;9.40;;;;;;;8.67;100.00;62890.09;5101632;28;20245;-78
2022/01/03 09:04:44;;;;;;;14.15;9.20;;;;;;;8.74;100.00;62896.78;5105804;28;20263;-77
2022/01/03 09:07:12;;;;;;;12.77;9.02;;;;;;;8.76;100.00;62896.84;5105397;28;20211;-77
2022/01/03 09:09:40;;;;;;;12.55;8.50;;;;;;;8.71;100.00;62896.75;5103898;28;20211;-78
2022/01/03 09:12:09;;;;;;;18.80;9.07;;;;;;;8.67;100.00;62889.56;5101921;28;20199;-78
2022/01/03 09:14:36;;;;;;;13.80;9.93;;;;;;;8.60;100.00;62882.84;5104631;28;20244;-77
2022/01/03 09:17:03;;;;;;;14.50;9.95;;;;;;;8.45;100.00;62866.84;5104755;28;20192;-78
2022/01/03 09:19:31;;;;;;;15.55;10.85;;;;;;;8.58;100.00;62880.25;5099016;28;20235;-77
2022/01/03 09:22:08;;;;;;;16.58;10.30;;;;;;;8.84;100.00;62910.19;5102215;28;20274;-78
2022/01/03 09:24:46;;;;;;;18.10;9.95;;;;;;;8.96;100.00;62922.59;5100956;28;20231;-78
2022/01/03 09:30:02;;;;;;;14.70;10.20;;;;;;;9.35;100.00;62962.91;5108856;28;20215;-78
2022/01/03 09:32:28;;;;;;;14.13;10.48;;;;;;;9.64;100.00;62987.28;5113737;28;20250;-77
2022/01/03 09:34:57;;;;;;;13.27;9.77;;;;;;;9.93;96.50;63019.31;5111729;28;20227;-78
2022/01/03 09:37:24;;;;;;;12.90;10.40;;;;;;;10.23;93.97;63048.31;5115555;28;20206;-77
2022/01/03 09:39:51;;;;;;;10.50;9.32;;;;;;;10.29;92.60;63057.09;5106056;28;20212;-79
2022/01/03 09:42:23;;;;;;;13.18;9.32;;;;;;;10.29;92.48;63056.56;5106007;28;20214;-77
2022/01/03 09:44:51;;;;;;;12.05;9.32;;;;;;;10.44;90.82;63072.59;5101947;28;20564;-78
2022/01/03 09:47:20;;;;;;;15.88;9.85;;;;;;;10.44;90.49;63075.16;5105054;28;20510;-79
2022/01/03 09:49:47;;;;;;;13.45;10.45;;;;;;;10.63;91.24;63093.78;5106015;28;20325;-79
2022/01/03 09:52:16;;;;;;;12.57;9.52;;;;;;;10.83;89.47;63111.94;5103873;28;20233;-79
2022/01/03 09:54:45;;;;;;;13.07;9.18;;;;;;;10.88;89.08;63117.63;5105155;28;20231;-79
2022/01/03 09:57:13;;;;;;;13.85;10.18;;;;;;;10.82;90.00;63111.41;5110410;28;20196;-78
2022/01/03 09:59:44;;;;;;;13.40;9.65;;;;;;;11.20;89.87;63145.16;5109666;28;20220;-78
2022/01/03 10:02:15;;;;;;;15.70;10.23;;;;;;;11.04;88.07;63136.75;5106251;28;20242;-79
2022/01/03 10:04:41;;;;;;;15.40;9.32;;;;;;;11.15;87.76;63148.13;5108305;28;20340;-78
2022/01/03 10:07:11;;;;;;;15.60;9.98;;;;;;;11.26;86.61;63151.38;5111614;28;20542;-78
2022/01/03 10:09:39;;;;;;;14.80;11.02;;;;;;;11.12;86.86;63145.03;5109068;28;20271;-79
2022/01/03 10:12:10;;;;;;;12.73;9.55;;;;;;;11.11;87.38;63140.94;5105808;28;20273;-78
2022/01/03 10:14:36;;;;;;;15.35;10.40;;;;;;;11.09;86.14;63141.94;5106392;28;20459;-78
2022/01/03 10:17:06;;;;;;;13.70;9.60;;;;;;;11.06;87.26;63138.31;5126022;28;20202;-77
2022/01/03 10:19:50;;;;;;;16.33;10.13;;;;;;;11.20;87.53;63152.81;5125763;28;20308;-77
2022/01/03 10:22:21;;;;;;;12.93;9.10;;;;;;;11.04;85.68;63136.75;5107802;28;20230;-78
2022/01/03 10:24:48;;;;;;;34.65;23.40;;;;;;;10.97;86.11;63129.50;5108534;28;20250;-78
2022/01/03 10:27:16;;;;;;;15.20;10.10;;;;;;;11.17;86.30;63149.69;5109220;28;20258;-79
2022/01/03 10:29:42;;;;;;;14.73;8.98;;;;;;;10.82;86.36;63113.47;5105126;28;20238;-78
2022/01/03 10:32:12;;;;;;;14.07;9.25;;;;;;;10.73;86.42;63099.03;5108943;28;20208;-78
2022/01/03 10:34:39;;;;;;;16.20;9.88;;;;;;;10.97;87.22;63123.88;5118569;28;20234;-78
2022/01/03 10:37:14;;;;;;;10.48;9.00;;;;;;;10.97;86.06;63124.41;5109729;28;20252;-79
2022/01/03 10:39:41;;;;;;;10.70;8.85;;;;;;;10.98;83.43;63130.53;5104526;28;20215;-79
2022/01/03 10:42:16;;;;;;;12.88;8.70;;;;;;;11.10;83.81;63144.97;5108541;28;20196;-78
2022/01/03 10:44:43;;;;;;;13.00;8.40;;;;;;;11.28;82.87;63161.09;5108354;28;20219;-78
2022/01/03 10:47:14;;;;;;;13.88;10.70;;;;;;;11.27;83.91;63162.59;5108937;28;20245;-77
2022/01/03 10:49:42;;;;;;;10.80;8.48;;;;;;;11.41;81.77;63172.50;5107554;28;20288;-79
2022/01/03 10:52:18;;;;;;;14.75;9.70;;;;;;;11.35;82.37;63165.78;5108243;28;20208;-78
2022/01/03 10:55:07;;;;;;;10.35;8.50;;;;;;;11.31;82.41;63169.28;5094492;28;20231;-78
2022/01/03 10:57:49;;;;;;;14.02;10.13;;;;;;;11.57;81.95;63191.13;5105366;28;20245;-78
2022/01/03 11:00:18;;;;;;;12.68;9.27;;;;;;;11.61;80.24;63198.31;5108919;28;20211;-78
2022/01/03 11:03:14;;;;;;;16.35;9.02;;;;;;;11.26;80.46;63159.53;5103787;28;20207;-78
2022/01/03 11:05:45;;;;;;;13.48;9.60;;;;;;;11.16;82.30;63151.22;5115901;28;20501;-78
2022/01/03 11:10:59;;;;;;;11.70;8.70;;;;;;;10.69;85.90;63095.41;5107620;28;20230;-79
2022/01/03 11:13:26;;;;;;;14.70;10.90;;;;;;;10.49;88.79;63079.81;5108682;28;20220;-78
2022/01/03 11:15:54;;;;;;;15.77;10.30;;;;;;;10.55;89.58;63086.03;5103586;28;20247;-78
2022/01/03 11:18:25;;;;;;;11.07;9.27;;;;;;;10.24;89.91;63054.47;5125745;28;20217;-79
2022/01/03 11:21:06;;;;;;;16.85;9.70;;;;;;;10.27;90.57;63057.56;5119282;28;20259;-78
2022/01/03 11:23:34;;;;;;;14.88;10.88;;;;;;;10.35;90.71;63065.84;5106424;28;20218;-79
2022/01/03 11:26:06;;;;;;;16.75;9.55;;;;;;;10.38;90.21;63068.44;5106528;28;20230;-77
2022/01/03 11:28:34;;;;;;;15.10;9.57;;;;;;;10.45;89.85;63073.13;5106716;28;20216;-77
2022/01/03 11:31:02;;;;;;;17.40;10.57;;;;;;;10.48;90.18;63076.22;5107109;28;20200;-78
2022/01/03 11:33:31;;;;;;;16.45;9.93;;;;;;;10.65;89.43;63091.28;5101952;28;20540;-77
2022/01/03 11:36:01;;;;;;;16.20;10.25;;;;;;;10.61;89.45;63089.69;5106809;28;20211;-79
2022/01/03 11:38:30;;;;;;;13.88;10.77;;;;;;;10.74;89.14;63103.13;5106284;28;20227;-77